sensor_id;sensor_type;location;lat;lon;timestamp;P1;durP1;ratioP1;P2;durP2;ratioP2
40170;SDS011;37650;52.790;18.268;2022-10-16T00:03:35;38.30;;;34.30;;
40170;SDS011;37650;52.790;18.268;2022-10-16T00:06:55;35.20;;;31.50;;
40170;SDS011;37650;52.790;18.268;2022-10-16T00:10:16;36.10;;;32.50;;
40170;SDS011;37650;52.790;18.268;2022-10-16T00:13:37;38.80;;;34.70;;
40170;SDS011;37650;52.790;18.268;2022-10-16T00:16:58;46.50;;;41.50;;
40170;SDS011;37650;52.790;18.268;2022-10-16T00:20:19;46.30;;;41.60;;
40170;SDS011;37650;52.790;18.268;2022-10-16T00:23:40;50.40;;;45.20;;
40170;SDS011;37650;52.790;18.268;2022-10-16T00:27:01;51.20;;;45.70;;
40170;SDS011;37650;52.790;18.268;2022-10-16T00:30:21;43.00;;;38.70;;
40170;SDS011;37650;52.790;18.268;2022-10-16T00:33:41;39.30;;;34.80;;
40170;SDS011;37650;52.790;18.268;2022-10-16T00:37:02;36.80;;;33.00;;
40170;SDS011;37650;52.790;18.268;2022-10-16T00:40:22;38.20;;;34.50;;
40170;SDS011;37650;52.790;18.268;2022-10-16T00:43:50;40.10;;;36.00;;
40170;SDS011;37650;52.790;18.268;2022-10-16T00:47:31;43.30;;;38.80;;
40170;SDS011;37650;52.790;18.268;2022-10-16T00:50:54;46.10;;;41.40;;
40170;SDS011;37650;52.790;18.268;2022-10-16T00:54:19;40.00;;;35.70;;
40170;SDS011;37650;52.790;18.268;2022-10-16T00:57:42;43.20;;;37.00;;
40170;SDS011;37650;52.790;18.268;2022-10-16T01:01:05;41.00;;;36.60;;
40170;SDS011;37650;52.790;18.268;2022-10-16T01:04:25;41.30;;;37.10;;
40170;SDS011;37650;52.790;18.268;2022-10-16T01:11:37;32.90;;;29.40;;
40170;SDS011;37650;52.790;18.268;2022-10-16T01:15:25;38.80;;;33.90;;
40170;SDS011;37650;52.790;18.268;2022-10-16T01:18:54;38.80;;;34.70;;
40170;SDS011;37650;52.790;18.268;2022-10-16T01:22:43;39.90;;;35.60;;
40170;SDS011;37650;52.790;18.268;2022-10-16T01:29:39;40.70;;;36.50;;
40170;SDS011;37650;52.790;18.268;2022-10-16T01:33:05;48.10;;;43.00;;
40170;SDS011;37650;52.790;18.268;2022-10-16T01:36:36;37.60;;;32.50;;
40170;SDS011;37650;52.790;18.268;2022-10-16T01:40:09;34.90;;;30.90;;
40170;SDS011;37650;52.790;18.268;2022-10-16T01:43:40;35.90;;;32.10;;
40170;SDS011;37650;52.790;18.268;2022-10-16T01:47:22;37.10;;;33.20;;
40170;SDS011;37650;52.790;18.268;2022-10-16T01:50:48;46.60;;;41.70;;
40170;SDS011;37650;52.790;18.268;2022-10-16T01:54:26;44.50;;;40.10;;
40170;SDS011;37650;52.790;18.268;2022-10-16T01:57:49;41.00;;;36.10;;
40170;SDS011;37650;52.790;18.268;2022-10-16T02:01:11;35.80;;;32.10;;
40170;SDS011;37650;52.790;18.268;2022-10-16T02:04:37;36.10;;;32.30;;
40170;SDS011;37650;52.790;18.268;2022-10-16T02:08:02;33.50;;;30.00;;
40170;SDS011;37650;52.790;18.268;2022-10-16T02:11:23;29.40;;;26.40;;
40170;SDS011;37650;52.790;18.268;2022-10-16T02:14:44;28.90;;;26.00;;
40170;SDS011;37650;52.790;18.268;2022-10-16T02:18:07;31.20;;;27.90;;
40170;SDS011;37650;52.790;18.268;2022-10-16T02:21:30;31.20;;;26.90;;
40170;SDS011;37650;52.790;18.268;2022-10-16T02:28:49;28.40;;;25.40;;
40170;SDS011;37650;52.790;18.268;2022-10-16T02:32:15;27.20;;;24.20;;
40170;SDS011;37650;52.790;18.268;2022-10-16T02:35:39;30.30;;;27.30;;
40170;SDS011;37650;52.790;18.268;2022-10-16T02:39:02;34.70;;;28.60;;
40170;SDS011;37650;52.790;18.268;2022-10-16T02:42:37;28.40;;;25.40;;
40170;SDS011;37650;52.790;18.268;2022-10-16T02:45:59;26.80;;;23.60;;
40170;SDS011;37650;52.790;18.268;2022-10-16T02:49:20;30.20;;;27.10;;
40170;SDS011;37650;52.790;18.268;2022-10-16T02:52:41;29.60;;;26.70;;
40170;SDS011;37650;52.790;18.268;2022-10-16T02:56:02;29.20;;;25.50;;
40170;SDS011;37650;52.790;18.268;2022-10-16T02:59:22;27.30;;;24.50;;
40170;SDS011;37650;52.790;18.268;2022-10-16T03:02:43;26.70;;;24.00;;
40170;SDS011;37650;52.790;18.268;2022-10-16T03:06:03;31.10;;;27.80;;
40170;SDS011;37650;52.790;18.268;2022-10-16T03:09:23;31.40;;;26.80;;
40170;SDS011;37650;52.790;18.268;2022-10-16T03:12:44;28.70;;;25.60;;
40170;SDS011;37650;52.790;18.268;2022-10-16T03:16:04;26.70;;;23.90;;
40170;SDS011;37650;52.790;18.268;2022-10-16T03:19:24;30.10;;;27.20;;
40170;SDS011;37650;52.790;18.268;2022-10-16T03:22:45;33.30;;;29.90;;
40170;SDS011;37650;52.790;18.268;2022-10-16T03:26:05;39.00;;;35.00;;
40170;SDS011;37650;52.790;18.268;2022-10-16T03:29:26;35.30;;;30.40;;
40170;SDS011;37650;52.790;18.268;2022-10-16T03:32:47;31.50;;;28.10;;
40170;SDS011;37650;52.790;18.268;2022-10-16T03:36:07;29.90;;;26.90;;
40170;SDS011;37650;52.790;18.268;2022-10-16T03:39:28;30.10;;;26.70;;
40170;SDS011;37650;52.790;18.268;2022-10-16T03:42:48;31.30;;;27.60;;
40170;SDS011;37650;52.790;18.268;2022-10-16T03:46:08;32.50;;;29.10;;
40170;SDS011;37650;52.790;18.268;2022-10-16T03:49:29;29.20;;;25.80;;
40170;SDS011;37650;52.790;18.268;2022-10-16T03:52:49;27.40;;;24.50;;
40170;SDS011;37650;52.790;18.268;2022-10-16T03:56:10;23.80;;;20.90;;
40170;SDS011;37650;52.790;18.268;2022-10-16T03:59:30;27.40;;;24.00;;
40170;SDS011;37650;52.790;18.268;2022-10-16T04:02:51;28.20;;;25.50;;
40170;SDS011;37650;52.790;18.268;2022-10-16T04:06:11;24.80;;;22.30;;
40170;SDS011;37650;52.790;18.268;2022-10-16T04:09:31;33.90;;;30.50;;
40170;SDS011;37650;52.790;18.268;2022-10-16T04:12:51;16.90;;;15.30;;
40170;SDS011;37650;52.790;18.268;2022-10-16T04:16:11;29.20;;;26.40;;
40170;SDS011;37650;52.790;18.268;2022-10-16T04:19:31;31.20;;;28.10;;
40170;SDS011;37650;52.790;18.268;2022-10-16T04:22:52;28.90;;;26.00;;
40170;SDS011;37650;52.790;18.268;2022-10-16T04:26:12;34.60;;;31.20;;
40170;SDS011;37650;52.790;18.268;2022-10-16T04:29:33;27.20;;;24.50;;
40170;SDS011;37650;52.790;18.268;2022-10-16T04:32:53;21.50;;;18.30;;
40170;SDS011;37650;52.790;18.268;2022-10-16T04:36:14;21.70;;;19.50;;
40170;SDS011;37650;52.790;18.268;2022-10-16T04:39:34;25.50;;;22.80;;
40170;SDS011;37650;52.790;18.268;2022-10-16T04:42:55;20.30;;;17.20;;
40170;SDS011;37650;52.790;18.268;2022-10-16T04:46:15;19.40;;;17.40;;
40170;SDS011;37650;52.790;18.268;2022-10-16T04:49:35;21.60;;;19.60;;
40170;SDS011;37650;52.790;18.268;2022-10-16T04:52:56;25.10;;;22.70;;
40170;SDS011;37650;52.790;18.268;2022-10-16T04:56:17;24.50;;;22.10;;
40170;SDS011;37650;52.790;18.268;2022-10-16T04:59:37;27.50;;;24.60;;
40170;SDS011;37650;52.790;18.268;2022-10-16T05:02:57;28.90;;;26.10;;
40170;SDS011;37650;52.790;18.268;2022-10-16T05:06:19;32.50;;;29.60;;
40170;SDS011;37650;52.790;18.268;2022-10-16T05:09:39;24.40;;;22.10;;
40170;SDS011;37650;52.790;18.268;2022-10-16T05:13:00;17.40;;;15.70;;
40170;SDS011;37650;52.790;18.268;2022-10-16T05:16:20;20.50;;;18.70;;
40170;SDS011;37650;52.790;18.268;2022-10-16T05:19:40;15.50;;;13.60;;
40170;SDS011;37650;52.790;18.268;2022-10-16T05:23:01;13.20;;;11.90;;
40170;SDS011;37650;52.790;18.268;2022-10-16T05:26:21;14.40;;;12.80;;
40170;SDS011;37650;52.790;18.268;2022-10-16T05:29:42;16.00;;;14.40;;
40170;SDS011;37650;52.790;18.268;2022-10-16T05:33:03;12.60;;;11.40;;
40170;SDS011;37650;52.790;18.268;2022-10-16T05:36:23;15.00;;;13.50;;
40170;SDS011;37650;52.790;18.268;2022-10-16T05:39:44;18.90;;;15.10;;
40170;SDS011;37650;52.790;18.268;2022-10-16T05:43:04;17.50;;;15.80;;
40170;SDS011;37650;52.790;18.268;2022-10-16T05:46:25;18.40;;;13.80;;
40170;SDS011;37650;52.790;18.268;2022-10-16T05:49:45;15.60;;;13.80;;
40170;SDS011;37650;52.790;18.268;2022-10-16T05:53:06;18.80;;;17.00;;
40170;SDS011;37650;52.790;18.268;2022-10-16T05:56:26;21.30;;;19.20;;
40170;SDS011;37650;52.790;18.268;2022-10-16T05:59:46;17.30;;;15.70;;
40170;SDS011;37650;52.790;18.268;2022-10-16T06:03:06;14.60;;;13.10;;
40170;SDS011;37650;52.790;18.268;2022-10-16T06:06:27;13.50;;;11.90;;
40170;SDS011;37650;52.790;18.268;2022-10-16T06:13:13;11.90;;;9.80;;
40170;SDS011;37650;52.790;18.268;2022-10-16T06:19:56;15.40;;;13.60;;
40170;SDS011;37650;52.790;18.268;2022-10-16T06:23:16;17.80;;;13.90;;
40170;SDS011;37650;52.790;18.268;2022-10-16T06:26:37;14.90;;;12.40;;
40170;SDS011;37650;52.790;18.268;2022-10-16T06:29:58;39.60;;;32.00;;
40170;SDS011;37650;52.790;18.268;2022-10-16T06:33:18;22.10;;;18.30;;
40170;SDS011;37650;52.790;18.268;2022-10-16T06:36:39;14.90;;;13.20;;
40170;SDS011;37650;52.790;18.268;2022-10-16T06:39:59;15.00;;;11.40;;
40170;SDS011;37650;52.790;18.268;2022-10-16T06:43:19;11.40;;;10.20;;
40170;SDS011;37650;52.790;18.268;2022-10-16T06:46:40;15.30;;;12.40;;
40170;SDS011;37650;52.790;18.268;2022-10-16T06:50:00;13.50;;;11.50;;
40170;SDS011;37650;52.790;18.268;2022-10-16T06:53:20;11.50;;;9.80;;
40170;SDS011;37650;52.790;18.268;2022-10-16T06:56:41;13.70;;;12.40;;
40170;SDS011;37650;52.790;18.268;2022-10-16T07:00:01;16.50;;;14.80;;
40170;SDS011;37650;52.790;18.268;2022-10-16T07:03:22;11.70;;;10.60;;
40170;SDS011;37650;52.790;18.268;2022-10-16T07:06:42;11.40;;;10.30;;
40170;SDS011;37650;52.790;18.268;2022-10-16T07:10:03;12.50;;;10.10;;
40170;SDS011;37650;52.790;18.268;2022-10-16T07:13:24;10.50;;;7.80;;
40170;SDS011;37650;52.790;18.268;2022-10-16T07:16:44;10.30;;;8.60;;
40170;SDS011;37650;52.790;18.268;2022-10-16T07:20:07;10.60;;;8.20;;
40170;SDS011;37650;52.790;18.268;2022-10-16T07:23:28;11.30;;;9.50;;
40170;SDS011;37650;52.790;18.268;2022-10-16T07:26:49;14.10;;;11.80;;
40170;SDS011;37650;52.790;18.268;2022-10-16T07:30:10;12.50;;;11.30;;
40170;SDS011;37650;52.790;18.268;2022-10-16T07:33:31;14.60;;;12.60;;
40170;SDS011;37650;52.790;18.268;2022-10-16T07:36:53;15.60;;;12.80;;
40170;SDS011;37650;52.790;18.268;2022-10-16T07:40:13;16.90;;;14.20;;
40170;SDS011;37650;52.790;18.268;2022-10-16T07:43:34;14.30;;;12.80;;
40170;SDS011;37650;52.790;18.268;2022-10-16T07:46:54;14.30;;;12.80;;
40170;SDS011;37650;52.790;18.268;2022-10-16T07:50:14;14.40;;;12.90;;
40170;SDS011;37650;52.790;18.268;2022-10-16T07:53:34;14.10;;;12.80;;
40170;SDS011;37650;52.790;18.268;2022-10-16T07:56:54;12.70;;;11.40;;
40170;SDS011;37650;52.790;18.268;2022-10-16T08:00:15;13.80;;;12.50;;
40170;SDS011;37650;52.790;18.268;2022-10-16T08:03:35;14.20;;;12.90;;
40170;SDS011;37650;52.790;18.268;2022-10-16T08:06:56;12.00;;;9.90;;
40170;SDS011;37650;52.790;18.268;2022-10-16T08:10:17;18.00;;;14.10;;
40170;SDS011;37650;52.790;18.268;2022-10-16T08:13:39;10.40;;;8.90;;
40170;SDS011;37650;52.790;18.268;2022-10-16T08:16:59;8.80;;;7.90;;
40170;SDS011;37650;52.790;18.268;2022-10-16T08:20:21;11.50;;;8.10;;
40170;SDS011;37650;52.790;18.268;2022-10-16T08:23:42;10.30;;;8.00;;
40170;SDS011;37650;52.790;18.268;2022-10-16T08:27:03;13.90;;;8.30;;
40170;SDS011;37650;52.790;18.268;2022-10-16T08:30:23;11.30;;;8.30;;
40170;SDS011;37650;52.790;18.268;2022-10-16T08:33:44;8.50;;;6.00;;
40170;SDS011;37650;52.790;18.268;2022-10-16T08:40:33;13.80;;;9.90;;
40170;SDS011;37650;52.790;18.268;2022-10-16T08:47:45;15.60;;;7.90;;
40170;SDS011;37650;52.790;18.268;2022-10-16T08:51:11;10.40;;;8.30;;
40170;SDS011;37650;52.790;18.268;2022-10-16T08:54:50;9.70;;;8.50;;
40170;SDS011;37650;52.790;18.268;2022-10-16T08:58:16;10.20;;;7.60;;
40170;SDS011;37650;52.790;18.268;2022-10-16T09:01:44;9.60;;;7.70;;
40170;SDS011;37650;52.790;18.268;2022-10-16T09:09:04;9.80;;;7.10;;
40170;SDS011;37650;52.790;18.268;2022-10-16T09:16:30;8.20;;;7.00;;
40170;SDS011;37650;52.790;18.268;2022-10-16T09:19:59;8.70;;;7.10;;
40170;SDS011;37650;52.790;18.268;2022-10-16T09:23:36;8.10;;;7.30;;
40170;SDS011;37650;52.790;18.268;2022-10-16T09:26:57;7.30;;;6.60;;
40170;SDS011;37650;52.790;18.268;2022-10-16T09:30:18;8.60;;;7.70;;
40170;SDS011;37650;52.790;18.268;2022-10-16T09:33:39;11.50;;;10.50;;
40170;SDS011;37650;52.790;18.268;2022-10-16T09:40:31;9.20;;;7.40;;
40170;SDS011;37650;52.790;18.268;2022-10-16T09:43:57;7.60;;;6.40;;
40170;SDS011;37650;52.790;18.268;2022-10-16T09:47:21;6.10;;;5.40;;
40170;SDS011;37650;52.790;18.268;2022-10-16T09:50:54;8.60;;;7.10;;
40170;SDS011;37650;52.790;18.268;2022-10-16T09:54:19;8.20;;;7.10;;
40170;SDS011;37650;52.790;18.268;2022-10-16T09:57:50;9.70;;;7.50;;
40170;SDS011;37650;52.790;18.268;2022-10-16T10:01:12;15.70;;;14.20;;
40170;SDS011;37650;52.790;18.268;2022-10-16T10:04:37;11.60;;;10.50;;
40170;SDS011;37650;52.790;18.268;2022-10-16T10:08:01;8.10;;;7.30;;
40170;SDS011;37650;52.790;18.268;2022-10-16T10:15:03;8.20;;;5.90;;
40170;SDS011;37650;52.790;18.268;2022-10-16T10:18:30;7.40;;;6.40;;
40170;SDS011;37650;52.790;18.268;2022-10-16T10:21:51;8.30;;;7.00;;
40170;SDS011;37650;52.790;18.268;2022-10-16T10:32:20;16.90;;;13.10;;
40170;SDS011;37650;52.790;18.268;2022-10-16T10:39:49;7.70;;;6.60;;
40170;SDS011;37650;52.790;18.268;2022-10-16T10:43:35;7.50;;;6.80;;
40170;SDS011;37650;52.790;18.268;2022-10-16T10:50:55;13.70;;;12.40;;
40170;SDS011;37650;52.790;18.268;2022-10-16T10:58:34;14.20;;;7.60;;
40170;SDS011;37650;52.790;18.268;2022-10-16T11:12:39;10.60;;;8.70;;
40170;SDS011;37650;52.790;18.268;2022-10-16T11:16:31;6.00;;;5.00;;
40170;SDS011;37650;52.790;18.268;2022-10-16T11:20:02;8.60;;;7.80;;
40170;SDS011;37650;52.790;18.268;2022-10-16T11:26:56;7.20;;;6.40;;
40170;SDS011;37650;52.790;18.268;2022-10-16T11:30:27;9.80;;;8.50;;
40170;SDS011;37650;52.790;18.268;2022-10-16T11:37:30;5.60;;;5.10;;
40170;SDS011;37650;52.790;18.268;2022-10-16T11:41:08;9.30;;;8.20;;
40170;SDS011;37650;52.790;18.268;2022-10-16T11:48:31;6.50;;;5.80;;
40170;SDS011;37650;52.790;18.268;2022-10-16T11:55:46;10.60;;;9.60;;
40170;SDS011;37650;52.790;18.268;2022-10-16T12:02:56;9.60;;;7.70;;
40170;SDS011;37650;52.790;18.268;2022-10-16T12:09:44;8.00;;;7.20;;
40170;SDS011;37650;52.790;18.268;2022-10-16T12:13:25;7.50;;;6.40;;
40170;SDS011;37650;52.790;18.268;2022-10-16T12:16:56;7.70;;;5.10;;
40170;SDS011;37650;52.790;18.268;2022-10-16T12:20:31;6.70;;;6.00;;
40170;SDS011;37650;52.790;18.268;2022-10-16T12:23:56;5.90;;;5.30;;
40170;SDS011;37650;52.790;18.268;2022-10-16T12:27:28;9.00;;;6.00;;
40170;SDS011;37650;52.790;18.268;2022-10-16T12:34:28;6.10;;;4.50;;
40170;SDS011;37650;52.790;18.268;2022-10-16T12:38:07;8.00;;;6.80;;
40170;SDS011;37650;52.790;18.268;2022-10-16T12:41:35;8.20;;;7.10;;
40170;SDS011;37650;52.790;18.268;2022-10-16T12:45:00;7.60;;;5.90;;
40170;SDS011;37650;52.790;18.268;2022-10-16T12:48:21;7.20;;;6.40;;
40170;SDS011;37650;52.790;18.268;2022-10-16T12:51:42;6.90;;;4.70;;
40170;SDS011;37650;52.790;18.268;2022-10-16T12:55:04;10.10;;;9.20;;
40170;SDS011;37650;52.790;18.268;2022-10-16T12:58:38;9.40;;;8.50;;
40170;SDS011;37650;52.790;18.268;2022-10-16T13:06:22;11.10;;;9.50;;
40170;SDS011;37650;52.790;18.268;2022-10-16T13:28:20;5.00;;;4.50;;
40170;SDS011;37650;52.790;18.268;2022-10-16T13:31:48;6.20;;;4.60;;
40170;SDS011;37650;52.790;18.268;2022-10-16T13:35:19;7.00;;;6.30;;
40170;SDS011;37650;52.790;18.268;2022-10-16T13:38:45;6.20;;;5.70;;
40170;SDS011;37650;52.790;18.268;2022-10-16T13:42:06;7.30;;;4.30;;
40170;SDS011;37650;52.790;18.268;2022-10-16T13:45:34;5.00;;;4.20;;
40170;SDS011;37650;52.790;18.268;2022-10-16T13:49:02;5.00;;;4.00;;
40170;SDS011;37650;52.790;18.268;2022-10-16T13:52:25;5.90;;;4.80;;
40170;SDS011;37650;52.790;18.268;2022-10-16T13:55:44;9.80;;;6.90;;
40170;SDS011;37650;52.790;18.268;2022-10-16T13:59:06;10.00;;;9.00;;
40170;SDS011;37650;52.790;18.268;2022-10-16T14:02:42;9.20;;;8.20;;
40170;SDS011;37650;52.790;18.268;2022-10-16T14:06:03;12.50;;;8.30;;
40170;SDS011;37650;52.790;18.268;2022-10-16T14:09:31;14.20;;;12.90;;
40170;SDS011;37650;52.790;18.268;2022-10-16T14:16:20;11.30;;;10.30;;
40170;SDS011;37650;52.790;18.268;2022-10-16T14:19:45;9.10;;;8.20;;
40170;SDS011;37650;52.790;18.268;2022-10-16T14:23:19;12.00;;;10.40;;
40170;SDS011;37650;52.790;18.268;2022-10-16T14:26:43;9.90;;;9.00;;
40170;SDS011;37650;52.790;18.268;2022-10-16T14:30:21;14.20;;;12.10;;
40170;SDS011;37650;52.790;18.268;2022-10-16T14:33:42;13.30;;;9.10;;
40170;SDS011;37650;52.790;18.268;2022-10-16T14:40:35;11.80;;;7.20;;
40170;SDS011;37650;52.790;18.268;2022-10-16T14:44:05;10.10;;;8.00;;
40170;SDS011;37650;52.790;18.268;2022-10-16T14:47:27;9.30;;;6.90;;
40170;SDS011;37650;52.790;18.268;2022-10-16T14:50:49;10.30;;;7.50;;
40170;SDS011;37650;52.790;18.268;2022-10-16T14:54:15;7.30;;;5.50;;
40170;SDS011;37650;52.790;18.268;2022-10-16T14:57:40;12.70;;;7.80;;
40170;SDS011;37650;52.790;18.268;2022-10-16T15:01:02;11.30;;;8.00;;
40170;SDS011;37650;52.790;18.268;2022-10-16T15:04:28;15.70;;;7.40;;
40170;SDS011;37650;52.790;18.268;2022-10-16T15:07:49;20.60;;;9.10;;
40170;SDS011;37650;52.790;18.268;2022-10-16T15:11:12;15.60;;;9.60;;
40170;SDS011;37650;52.790;18.268;2022-10-16T15:14:37;16.70;;;10.80;;
40170;SDS011;37650;52.790;18.268;2022-10-16T15:17:59;10.60;;;8.40;;
40170;SDS011;37650;52.790;18.268;2022-10-16T15:21:28;12.80;;;9.60;;
40170;SDS011;37650;52.790;18.268;2022-10-16T15:24:52;22.30;;;15.90;;
40170;SDS011;37650;52.790;18.268;2022-10-16T15:28:15;21.90;;;18.30;;
40170;SDS011;37650;52.790;18.268;2022-10-16T15:31:36;14.00;;;11.30;;
40170;SDS011;37650;52.790;18.268;2022-10-16T15:34:57;10.60;;;9.50;;
40170;SDS011;37650;52.790;18.268;2022-10-16T15:38:18;9.10;;;7.20;;
40170;SDS011;37650;52.790;18.268;2022-10-16T15:41:40;7.50;;;5.50;;
40170;SDS011;37650;52.790;18.268;2022-10-16T15:45:01;5.80;;;4.90;;
40170;SDS011;37650;52.790;18.268;2022-10-16T15:48:23;7.20;;;5.70;;
40170;SDS011;37650;52.790;18.268;2022-10-16T15:51:44;6.70;;;5.10;;
40170;SDS011;37650;52.790;18.268;2022-10-16T15:55:06;8.20;;;6.70;;
40170;SDS011;37650;52.790;18.268;2022-10-16T15:58:28;7.50;;;6.00;;
40170;SDS011;37650;52.790;18.268;2022-10-16T16:01:49;6.90;;;6.20;;
40170;SDS011;37650;52.790;18.268;2022-10-16T16:05:10;6.80;;;6.10;;
40170;SDS011;37650;52.790;18.268;2022-10-16T16:08:32;12.80;;;8.20;;
40170;SDS011;37650;52.790;18.268;2022-10-16T16:15:13;14.70;;;10.30;;
40170;SDS011;37650;52.790;18.268;2022-10-16T16:18:33;13.90;;;11.90;;
40170;SDS011;37650;52.790;18.268;2022-10-16T16:21:53;19.70;;;15.40;;
40170;SDS011;37650;52.790;18.268;2022-10-16T16:25:13;28.50;;;23.60;;
40170;SDS011;37650;52.790;18.268;2022-10-16T16:28:33;29.10;;;23.70;;
40170;SDS011;37650;52.790;18.268;2022-10-16T16:31:55;30.00;;;22.20;;
40170;SDS011;37650;52.790;18.268;2022-10-16T16:35:17;25.50;;;22.00;;
40170;SDS011;37650;52.790;18.268;2022-10-16T16:38:37;29.10;;;23.10;;
40170;SDS011;37650;52.790;18.268;2022-10-16T16:41:57;24.80;;;20.60;;
40170;SDS011;37650;52.790;18.268;2022-10-16T16:45:18;19.00;;;17.00;;
40170;SDS011;37650;52.790;18.268;2022-10-16T16:52:00;17.70;;;14.50;;
40170;SDS011;37650;52.790;18.268;2022-10-16T16:55:21;19.50;;;15.80;;
40170;SDS011;37650;52.790;18.268;2022-10-16T16:58:40;21.50;;;16.80;;
40170;SDS011;37650;52.790;18.268;2022-10-16T17:02:02;16.40;;;12.90;;
40170;SDS011;37650;52.790;18.268;2022-10-16T17:05:23;14.30;;;11.20;;
40170;SDS011;37650;52.790;18.268;2022-10-16T17:08:44;13.30;;;11.10;;
40170;SDS011;37650;52.790;18.268;2022-10-16T17:12:05;14.40;;;12.70;;
40170;SDS011;37650;52.790;18.268;2022-10-16T17:15:25;22.80;;;15.70;;
40170;SDS011;37650;52.790;18.268;2022-10-16T17:18:46;17.10;;;13.30;;
40170;SDS011;37650;52.790;18.268;2022-10-16T17:22:07;20.00;;;15.60;;
40170;SDS011;37650;52.790;18.268;2022-10-16T17:25:27;20.20;;;16.10;;
40170;SDS011;37650;52.790;18.268;2022-10-16T17:28:52;24.60;;;19.20;;
40170;SDS011;37650;52.790;18.268;2022-10-16T17:32:16;26.00;;;18.20;;
40170;SDS011;37650;52.790;18.268;2022-10-16T17:35:41;28.00;;;17.80;;
40170;SDS011;37650;52.790;18.268;2022-10-16T17:39:04;30.10;;;19.40;;
40170;SDS011;37650;52.790;18.268;2022-10-16T17:42:30;27.70;;;17.90;;
40170;SDS011;37650;52.790;18.268;2022-10-16T17:45:52;22.50;;;17.50;;
40170;SDS011;37650;52.790;18.268;2022-10-16T17:49:13;25.30;;;17.40;;
40170;SDS011;37650;52.790;18.268;2022-10-16T17:52:34;25.20;;;16.40;;
40170;SDS011;37650;52.790;18.268;2022-10-16T17:55:56;20.90;;;15.10;;
40170;SDS011;37650;52.790;18.268;2022-10-16T17:59:22;18.30;;;13.70;;
40170;SDS011;37650;52.790;18.268;2022-10-16T18:02:44;16.00;;;12.00;;
40170;SDS011;37650;52.790;18.268;2022-10-16T18:06:08;11.70;;;10.40;;
40170;SDS011;37650;52.790;18.268;2022-10-16T18:09:30;12.90;;;9.10;;
40170;SDS011;37650;52.790;18.268;2022-10-16T18:12:51;14.50;;;10.90;;
40170;SDS011;37650;52.790;18.268;2022-10-16T18:16:13;12.30;;;9.90;;
40170;SDS011;37650;52.790;18.268;2022-10-16T18:22:56;22.50;;;18.10;;
40170;SDS011;37650;52.790;18.268;2022-10-16T18:26:17;17.30;;;14.60;;
40170;SDS011;37650;52.790;18.268;2022-10-16T18:29:38;18.40;;;14.30;;
40170;SDS011;37650;52.790;18.268;2022-10-16T18:32:58;18.70;;;15.20;;
40170;SDS011;37650;52.790;18.268;2022-10-16T18:36:21;30.90;;;27.80;;
40170;SDS011;37650;52.790;18.268;2022-10-16T18:39:47;24.10;;;21.70;;
40170;SDS011;37650;52.790;18.268;2022-10-16T18:43:09;25.20;;;22.90;;
40170;SDS011;37650;52.790;18.268;2022-10-16T18:49:52;33.90;;;30.40;;
40170;SDS011;37650;52.790;18.268;2022-10-16T18:53:14;26.30;;;23.70;;
40170;SDS011;37650;52.790;18.268;2022-10-16T18:56:35;25.30;;;22.80;;
40170;SDS011;37650;52.790;18.268;2022-10-16T18:59:58;22.70;;;20.40;;
40170;SDS011;37650;52.790;18.268;2022-10-16T19:03:20;21.40;;;19.30;;
40170;SDS011;37650;52.790;18.268;2022-10-16T19:06:43;18.70;;;14.90;;
40170;SDS011;37650;52.790;18.268;2022-10-16T19:10:06;16.10;;;13.90;;
40170;SDS011;37650;52.790;18.268;2022-10-16T19:13:27;16.50;;;14.10;;
40170;SDS011;37650;52.790;18.268;2022-10-16T19:16:48;15.30;;;13.80;;
40170;SDS011;37650;52.790;18.268;2022-10-16T19:20:09;19.60;;;16.10;;
40170;SDS011;37650;52.790;18.268;2022-10-16T19:23:32;18.60;;;16.60;;
40170;SDS011;37650;52.790;18.268;2022-10-16T19:26:54;17.20;;;15.20;;
40170;SDS011;37650;52.790;18.268;2022-10-16T19:30:19;18.90;;;15.50;;
40170;SDS011;37650;52.790;18.268;2022-10-16T19:33:40;17.50;;;14.10;;
40170;SDS011;37650;52.790;18.268;2022-10-16T19:37:02;21.10;;;13.80;;
40170;SDS011;37650;52.790;18.268;2022-10-16T19:40:22;18.40;;;15.60;;
40170;SDS011;37650;52.790;18.268;2022-10-16T19:43:43;18.50;;;16.00;;
40170;SDS011;37650;52.790;18.268;2022-10-16T19:47:05;20.20;;;16.80;;
40170;SDS011;37650;52.790;18.268;2022-10-16T19:50:25;18.50;;;16.10;;
40170;SDS011;37650;52.790;18.268;2022-10-16T19:53:46;19.90;;;17.60;;
40170;SDS011;37650;52.790;18.268;2022-10-16T19:57:07;21.50;;;18.10;;
40170;SDS011;37650;52.790;18.268;2022-10-16T20:00:30;22.10;;;18.80;;
40170;SDS011;37650;52.790;18.268;2022-10-16T20:03:54;22.70;;;17.80;;
40170;SDS011;37650;52.790;18.268;2022-10-16T20:07:15;27.00;;;20.80;;
40170;SDS011;37650;52.790;18.268;2022-10-16T20:10:35;23.90;;;21.40;;
40170;SDS011;37650;52.790;18.268;2022-10-16T20:13:56;23.70;;;20.30;;
40170;SDS011;37650;52.790;18.268;2022-10-16T20:17:17;22.00;;;19.70;;
40170;SDS011;37650;52.790;18.268;2022-10-16T20:20:38;21.70;;;19.30;;
40170;SDS011;37650;52.790;18.268;2022-10-16T20:23:59;20.60;;;18.40;;
40170;SDS011;37650;52.790;18.268;2022-10-16T20:27:23;16.80;;;14.80;;
40170;SDS011;37650;52.790;18.268;2022-10-16T20:30:45;16.80;;;14.90;;
40170;SDS011;37650;52.790;18.268;2022-10-16T20:34:08;20.10;;;17.90;;
40170;SDS011;37650;52.790;18.268;2022-10-16T20:37:30;15.90;;;13.90;;
40170;SDS011;37650;52.790;18.268;2022-10-16T20:40:50;24.10;;;21.50;;
40170;SDS011;37650;52.790;18.268;2022-10-16T20:44:10;26.00;;;23.10;;
40170;SDS011;37650;52.790;18.268;2022-10-16T20:47:30;23.60;;;20.70;;
40170;SDS011;37650;52.790;18.268;2022-10-16T20:50:50;30.60;;;27.30;;
40170;SDS011;37650;52.790;18.268;2022-10-16T20:54:11;29.80;;;26.00;;
40170;SDS011;37650;52.790;18.268;2022-10-16T20:57:31;26.30;;;23.20;;
40170;SDS011;37650;52.790;18.268;2022-10-16T21:00:51;25.20;;;22.60;;
40170;SDS011;37650;52.790;18.268;2022-10-16T21:04:11;26.20;;;23.10;;
40170;SDS011;37650;52.790;18.268;2022-10-16T21:07:31;25.80;;;23.20;;
40170;SDS011;37650;52.790;18.268;2022-10-16T21:10:51;29.60;;;25.30;;
40170;SDS011;37650;52.790;18.268;2022-10-16T21:14:11;26.30;;;23.40;;
40170;SDS011;37650;52.790;18.268;2022-10-16T21:17:31;29.00;;;22.80;;
40170;SDS011;37650;52.790;18.268;2022-10-16T21:20:51;22.10;;;19.80;;
40170;SDS011;37650;52.790;18.268;2022-10-16T21:24:11;21.40;;;18.20;;
40170;SDS011;37650;52.790;18.268;2022-10-16T21:27:36;23.20;;;18.40;;
40170;SDS011;37650;52.790;18.268;2022-10-16T21:30:57;23.00;;;18.70;;
40170;SDS011;37650;52.790;18.268;2022-10-16T21:34:17;20.20;;;18.00;;
40170;SDS011;37650;52.790;18.268;2022-10-16T21:37:37;19.60;;;17.40;;
40170;SDS011;37650;52.790;18.268;2022-10-16T21:40:57;20.90;;;18.10;;
40170;SDS011;37650;52.790;18.268;2022-10-16T21:44:17;20.80;;;18.70;;
40170;SDS011;37650;52.790;18.268;2022-10-16T21:47:39;18.90;;;16.90;;
40170;SDS011;37650;52.790;18.268;2022-10-16T21:50:59;22.90;;;15.90;;
40170;SDS011;37650;52.790;18.268;2022-10-16T21:54:20;18.80;;;16.90;;
40170;SDS011;37650;52.790;18.268;2022-10-16T21:57:42;17.50;;;15.80;;
40170;SDS011;37650;52.790;18.268;2022-10-16T22:01:09;20.90;;;18.50;;